Terminal Aerodrome Forecast
Issued by NWS

Home | Current Version | Previous Version | Text Only | Print | Product List | Glossary On
Versions: 1 2 3 4 5 6 7 8 9 10 11 12 13 14 15 16 17 18
691
FTUS43 KDLH 181448 AAB
TAFHYR
TAF AMD
KHYR 181448Z 1815/1912 20005KT P6SM SKC WS015/30035KT
      TEMPO 1815/1816 5SM BR
     FM181900 23006KT P6SM SKC
     FM190100 00000KT 4SM BR SCT150
     FM190300 00000KT 2SM BR BKN120
     FM191000 00000KT 2SM BR BKN110=

USA.gov is the U.S. government's official web portal to all federal, state and local government web resources and services.